sensor_id;sensor_type;location;lat;lon;timestamp;temperature;humidity
27870;DHT22;15225;50.730;4.244;2023-09-12T18:00:05;23.20;99.90
27870;DHT22;15225;50.730;4.244;2023-09-12T18:02:31;22.70;99.90
27870;DHT22;15225;50.730;4.244;2023-09-12T18:04:56;23.00;61.90
27870;DHT22;15225;50.730;4.244;2023-09-12T18:07:22;23.40;1.00
27870;DHT22;15225;50.730;4.244;2023-09-12T18:09:50;23.80;99.90
27870;DHT22;15225;50.730;4.244;2023-09-12T18:12:16;24.10;99.90
27870;DHT22;15225;50.730;4.244;2023-09-12T18:14:41;24.40;99.90
27870;DHT22;15225;50.730;4.244;2023-09-12T18:17:07;24.60;99.90
27870;DHT22;15225;50.730;4.244;2023-09-12T18:19:34;24.70;99.90
27870;DHT22;15225;50.730;4.244;2023-09-12T18:22:00;24.70;73.20
27870;DHT22;15225;50.730;4.244;2023-09-12T18:24:26;24.80;1.00
27870;DHT22;15225;50.730;4.244;2023-09-12T18:26:52;24.70;29.90
27870;DHT22;15225;50.730;4.244;2023-09-12T18:29:18;24.70;9.40
27870;DHT22;15225;50.730;4.244;2023-09-12T18:31:44;24.80;1.00
27870;DHT22;15225;50.730;4.244;2023-09-12T18:34:09;24.80;32.40
27870;DHT22;15225;50.730;4.244;2023-09-12T18:36:36;24.70;99.90
27870;DHT22;15225;50.730;4.244;2023-09-12T18:39:02;24.70;99.90
27870;DHT22;15225;50.730;4.244;2023-09-12T18:41:32;24.60;99.90
27870;DHT22;15225;50.730;4.244;2023-09-12T18:43:58;24.70;99.90
27870;DHT22;15225;50.730;4.244;2023-09-12T18:46:26;24.90;14.30
27870;DHT22;15225;50.730;4.244;2023-09-12T18:48:52;24.90;1.00
27870;DHT22;15225;50.730;4.244;2023-09-12T18:51:18;24.80;29.70
27870;DHT22;15225;50.730;4.244;2023-09-12T18:53:43;24.70;99.90
27870;DHT22;15225;50.730;4.244;2023-09-12T18:56:09;24.70;99.90
27870;DHT22;15225;50.730;4.244;2023-09-12T18:58:35;24.70;99.90
27870;DHT22;15225;50.730;4.244;2023-09-12T19:01:01;24.60;99.90
27870;DHT22;15225;50.730;4.244;2023-09-12T19:03:28;24.50;99.90
27870;DHT22;15225;50.730;4.244;2023-09-12T19:05:56;24.60;99.90
27870;DHT22;15225;50.730;4.244;2023-09-12T19:08:23;24.60;99.90
27870;DHT22;15225;50.730;4.244;2023-09-12T19:10:49;24.40;1.00
27870;DHT22;15225;50.730;4.244;2023-09-12T19:13:14;24.50;1.00
27870;DHT22;15225;50.730;4.244;2023-09-12T19:15:41;24.60;99.90
27870;DHT22;15225;50.730;4.244;2023-09-12T19:18:09;24.50;99.90
27870;DHT22;15225;50.730;4.244;2023-09-12T19:20:35;24.50;1.00
27870;DHT22;15225;50.730;4.244;2023-09-12T19:23:03;24.10;95.60
27870;DHT22;15225;50.730;4.244;2023-09-12T19:25:29;24.10;99.90
27870;DHT22;15225;50.730;4.244;2023-09-12T19:27:59;24.10;99.90
27870;DHT22;15225;50.730;4.244;2023-09-12T19:30:26;24.00;1.00
27870;DHT22;15225;50.730;4.244;2023-09-12T19:32:51;24.20;99.90
27870;DHT22;15225;50.730;4.244;2023-09-12T19:35:18;24.20;99.90
27870;DHT22;15225;50.730;4.244;2023-09-12T19:37:43;24.30;12.00
27870;DHT22;15225;50.730;4.244;2023-09-12T19:40:11;24.10;99.90
27870;DHT22;15225;50.730;4.244;2023-09-12T19:42:37;24.10;99.90
27870;DHT22;15225;50.730;4.244;2023-09-12T19:45:04;24.20;1.00
27870;DHT22;15225;50.730;4.244;2023-09-12T19:47:30;24.10;99.90
27870;DHT22;15225;50.730;4.244;2023-09-12T19:49:57;24.10;99.90
27870;DHT22;15225;50.730;4.244;2023-09-12T19:52:24;24.00;1.00
27870;DHT22;15225;50.730;4.244;2023-09-12T19:54:50;24.00;1.00
27870;DHT22;15225;50.730;4.244;2023-09-12T19:57:17;24.00;50.40
27870;DHT22;15225;50.730;4.244;2023-09-12T19:59:43;24.10;1.00
27870;DHT22;15225;50.730;4.244;2023-09-12T20:02:09;24.10;1.00
27870;DHT22;15225;50.730;4.244;2023-09-12T20:04:35;24.00;99.90
27870;DHT22;15225;50.730;4.244;2023-09-12T20:07:00;23.90;99.90
27870;DHT22;15225;50.730;4.244;2023-09-12T20:09:26;23.80;99.90
27870;DHT22;15225;50.730;4.244;2023-09-12T20:11:52;23.90;99.90
27870;DHT22;15225;50.730;4.244;2023-09-12T20:14:19;23.90;38.70
27870;DHT22;15225;50.730;4.244;2023-09-12T20:16:44;23.90;99.90
27870;DHT22;15225;50.730;4.244;2023-09-12T20:19:11;23.80;1.00
27870;DHT22;15225;50.730;4.244;2023-09-12T20:21:37;23.60;99.90
27870;DHT22;15225;50.730;4.244;2023-09-12T20:24:06;23.80;99.90
27870;DHT22;15225;50.730;4.244;2023-09-12T20:26:33;23.80;1.00
27870;DHT22;15225;50.730;4.244;2023-09-12T20:28:59;23.80;33.20
27870;DHT22;15225;50.730;4.244;2023-09-12T20:31:24;23.70;99.90
27870;DHT22;15225;50.730;4.244;2023-09-12T20:33:50;23.70;1.00
27870;DHT22;15225;50.730;4.244;2023-09-12T20:36:16;23.10;1.00
27870;DHT22;15225;50.730;4.244;2023-09-12T20:38:48;22.80;99.90
27870;DHT22;15225;50.730;4.244;2023-09-12T20:41:15;22.60;1.00
27870;DHT22;15225;50.730;4.244;2023-09-12T20:43:41;22.60;1.00
27870;DHT22;15225;50.730;4.244;2023-09-12T20:46:06;22.50;99.90
27870;DHT22;15225;50.730;4.244;2023-09-12T20:48:35;22.70;99.90
27870;DHT22;15225;50.730;4.244;2023-09-12T20:51:08;22.60;99.90
27870;DHT22;15225;50.730;4.244;2023-09-12T20:53:34;22.50;1.00
27870;DHT22;15225;50.730;4.244;2023-09-12T20:56:01;22.40;17.80
27870;DHT22;15225;50.730;4.244;2023-09-12T20:58:27;22.10;99.90
27870;DHT22;15225;50.730;4.244;2023-09-12T21:00:53;21.70;99.90
27870;DHT22;15225;50.730;4.244;2023-09-12T21:03:18;21.70;99.90
27870;DHT22;15225;50.730;4.244;2023-09-12T21:05:44;22.20;52.20
27870;DHT22;15225;50.730;4.244;2023-09-12T21:08:11;22.60;54.70
27870;DHT22;15225;50.730;4.244;2023-09-12T21:10:37;22.70;1.00
27870;DHT22;15225;50.730;4.244;2023-09-12T21:13:02;22.80;1.00
27870;DHT22;15225;50.730;4.244;2023-09-12T21:15:28;22.40;1.00
27870;DHT22;15225;50.730;4.244;2023-09-12T21:17:54;22.70;1.00
27870;DHT22;15225;50.730;4.244;2023-09-12T21:20:20;23.50;99.90
27870;DHT22;15225;50.730;4.244;2023-09-12T21:22:45;23.80;99.90
27870;DHT22;15225;50.730;4.244;2023-09-12T21:25:11;23.90;99.90
27870;DHT22;15225;50.730;4.244;2023-09-12T21:27:38;24.00;99.90
27870;DHT22;15225;50.730;4.244;2023-09-12T21:30:04;23.80;99.90
27870;DHT22;15225;50.730;4.244;2023-09-12T21:32:31;23.50;1.00
27870;DHT22;15225;50.730;4.244;2023-09-12T21:37:53;23.00;1.00
27870;DHT22;15225;50.730;4.244;2023-09-12T21:40:20;23.30;99.90
27870;DHT22;15225;50.730;4.244;2023-09-12T21:42:46;23.70;99.90
27870;DHT22;15225;50.730;4.244;2023-09-12T21:45:12;23.50;99.90
27870;DHT22;15225;50.730;4.244;2023-09-12T21:47:42;23.60;99.90
27870;DHT22;15225;50.730;4.244;2023-09-12T21:50:09;23.60;99.90
27870;DHT22;15225;50.730;4.244;2023-09-12T21:52:35;23.60;99.90
27870;DHT22;15225;50.730;4.244;2023-09-12T21:55:01;23.50;1.00
27870;DHT22;15225;50.730;4.244;2023-09-12T21:57:27;23.40;1.00
27870;DHT22;15225;50.730;4.244;2023-09-12T21:59:53;23.30;99.90
27870;DHT22;15225;50.730;4.244;2023-09-12T22:02:21;23.30;99.90
27870;DHT22;15225;50.730;4.244;2023-09-12T22:04:46;23.20;1.00
27870;DHT22;15225;50.730;4.244;2023-09-12T22:07:12;23.20;1.00
